createdAt,value
2022-12-10T00:00:41.809Z,33.47
2022-12-10T00:03:03.204Z,33.70
2022-12-10T00:05:24.373Z,33.83
2022-12-10T00:07:45.665Z,34.17
2022-12-10T00:10:10.882Z,33.93
2022-12-10T00:12:32.451Z,33.53
2022-12-10T00:14:53.746Z,31.90
2022-12-10T00:17:16.466Z,35.17
2022-12-10T00:19:37.367Z,32.77
2022-12-10T00:21:58.620Z,34.53
2022-12-10T00:24:19.801Z,34.30
2022-12-10T00:26:41.023Z,35.17
2022-12-10T00:29:03.003Z,32.30
2022-12-10T00:31:25.490Z,34.80
2022-12-10T00:33:48.675Z,33.83
2022-12-10T00:36:11.015Z,35.33
2022-12-10T00:38:32.884Z,34.80
2022-12-10T00:40:53.925Z,31.83
2022-12-10T00:43:15.184Z,31.90
2022-12-10T00:45:36.512Z,31.93
2022-12-10T00:47:57.873Z,29.97
2022-12-10T00:50:20.466Z,30.90
2022-12-10T00:52:41.399Z,30.63
2022-12-10T00:55:02.611Z,32.27
2022-12-10T00:57:23.914Z,33.97
2022-12-10T00:59:45.362Z,32.47
2022-12-10T01:02:06.600Z,32.17
2022-12-10T01:04:27.745Z,31.77
2022-12-10T01:06:51.192Z,29.50
2022-12-10T01:09:13.829Z,31.60
2022-12-10T01:11:36.074Z,30.87
2022-12-10T01:13:57.458Z,29.30
2022-12-10T01:16:20.913Z,29.70
2022-12-10T01:18:42.175Z,31.57
2022-12-10T01:21:03.970Z,28.00
2022-12-10T01:23:26.348Z,29.63
2022-12-10T01:25:47.355Z,29.57
2022-12-10T01:28:08.493Z,29.17
2022-12-10T01:30:29.751Z,28.73
2022-12-10T01:32:50.637Z,29.37
2022-12-10T01:35:11.671Z,28.07
2022-12-10T01:37:32.866Z,29.03
2022-12-10T01:39:55.561Z,28.30
2022-12-10T01:42:16.949Z,28.67
2022-12-10T01:44:57.099Z,29.50
2022-12-10T01:47:18.111Z,29.30
2022-12-10T01:49:40.595Z,29.10
2022-12-10T01:52:01.545Z,28.90
2022-12-10T01:54:23.890Z,26.57
2022-12-10T01:56:47.113Z,28.13
2022-12-10T01:59:08.815Z,27.83
2022-12-10T02:01:34.483Z,27.90
2022-12-10T02:04:00.755Z,27.83
2022-12-10T02:06:27.546Z,26.70
2022-12-10T02:08:56.447Z,26.07
2022-12-10T02:11:18.792Z,27.37
2022-12-10T02:13:42.884Z,27.77
2022-12-10T02:16:05.559Z,26.53
2022-12-10T02:18:29.038Z,26.90
2022-12-10T02:20:52.849Z,25.43
2022-12-10T02:23:15.262Z,25.13
2022-12-10T02:25:38.908Z,26.53
2022-12-10T02:28:03.927Z,25.87
2022-12-10T02:30:27.189Z,24.30
2022-12-10T02:32:50.290Z,25.50
2022-12-10T02:35:13.582Z,26.03
2022-12-10T02:37:37.453Z,24.57
2022-12-10T02:39:59.873Z,26.47
2022-12-10T02:42:21.552Z,26.77
2022-12-10T02:44:44.221Z,25.67
2022-12-10T02:47:07.358Z,26.33
2022-12-10T02:49:29.950Z,27.67
2022-12-10T02:51:50.897Z,25.43
2022-12-10T02:54:26.994Z,25.43
2022-12-10T02:56:51.944Z,24.20
2022-12-10T02:59:18.178Z,24.80
2022-12-10T03:01:43.910Z,23.90
2022-12-10T03:04:10.236Z,23.73
2022-12-10T03:06:34.116Z,25.53
2022-12-10T03:09:02.153Z,22.97
2022-12-10T03:11:24.001Z,24.60
2022-12-10T03:13:47.211Z,24.40
2022-12-10T03:16:08.858Z,24.73
2022-12-10T03:18:32.065Z,23.83
2022-12-10T03:20:55.488Z,24.83
2022-12-10T03:23:17.647Z,23.57
2022-12-10T03:25:39.802Z,25.17
2022-12-10T03:28:01.182Z,25.33
2022-12-10T03:30:22.873Z,25.20
2022-12-10T03:32:45.125Z,25.10
2022-12-10T03:35:07.832Z,25.10
2022-12-10T03:37:30.694Z,25.03
2022-12-10T03:39:52.501Z,24.83
2022-12-10T03:42:13.745Z,24.17
2022-12-10T03:44:35.653Z,25.20
2022-12-10T03:46:56.795Z,24.87
2022-12-10T03:49:18.098Z,24.17
2022-12-10T03:51:39.446Z,25.80
2022-12-10T03:54:02.141Z,24.37
2022-12-10T03:56:23.839Z,24.40
2022-12-10T03:58:44.985Z,24.47
2022-12-10T04:01:06.247Z,26.63
2022-12-10T04:03:27.419Z,24.10
2022-12-10T04:05:48.589Z,24.23
2022-12-10T04:08:10.149Z,25.50
2022-12-10T04:10:36.420Z,24.93
2022-12-10T04:13:11.301Z,23.63
2022-12-10T04:15:49.809Z,23.17
2022-12-10T04:18:11.469Z,24.87
2022-12-10T04:20:46.528Z,25.00
2022-12-10T04:23:25.025Z,24.57
2022-12-10T04:26:05.023Z,23.37
2022-12-10T04:28:26.406Z,23.23
2022-12-10T04:30:47.635Z,23.90
2022-12-10T04:33:08.987Z,24.40
2022-12-10T04:35:30.235Z,24.87
2022-12-10T04:37:51.562Z,23.57
2022-12-10T04:40:13.243Z,22.63
2022-12-10T04:42:35.622Z,23.33
2022-12-10T04:44:56.780Z,23.03
2022-12-10T04:47:18.081Z,24.07
2022-12-10T04:49:39.448Z,23.40
2022-12-10T04:52:00.262Z,23.27
2022-12-10T04:54:21.716Z,23.27
2022-12-10T04:56:43.162Z,22.93
2022-12-10T04:59:06.380Z,22.83
2022-12-10T05:01:27.851Z,22.30
2022-12-10T05:03:49.144Z,22.70
2022-12-10T05:06:11.811Z,21.43
2022-12-10T05:08:33.143Z,22.60
2022-12-10T05:10:54.238Z,22.27
2022-12-10T05:13:15.285Z,22.57
2022-12-10T05:15:40.888Z,22.77
2022-12-10T05:18:02.021Z,21.90
2022-12-10T05:20:23.042Z,22.03
2022-12-10T05:23:10.257Z,21.83
2022-12-10T05:25:32.032Z,22.77
2022-12-10T05:27:53.430Z,21.40
2022-12-10T05:30:14.995Z,22.53
2022-12-10T05:32:37.452Z,21.07
2022-12-10T05:34:58.678Z,22.20
2022-12-10T05:37:19.912Z,22.10
2022-12-10T05:39:41.102Z,23.47
2022-12-10T05:42:02.188Z,23.70
2022-12-10T05:44:23.310Z,22.53
2022-12-10T05:46:44.653Z,22.97
2022-12-10T05:49:07.750Z,23.00
2022-12-10T05:51:30.871Z,23.33
2022-12-10T05:53:52.386Z,24.83
2022-12-10T05:56:14.494Z,24.80
2022-12-10T05:58:36.204Z,24.77
2022-12-10T06:00:57.566Z,24.07
2022-12-10T06:03:18.570Z,24.37
2022-12-10T06:05:42.019Z,25.07
2022-12-10T06:08:02.971Z,25.03
2022-12-10T06:10:24.034Z,24.40
2022-12-10T06:12:45.378Z,22.80
2022-12-10T06:15:07.436Z,23.27
2022-12-10T06:17:28.335Z,23.70
2022-12-10T06:19:49.654Z,22.33
2022-12-10T06:22:12.257Z,22.63
2022-12-10T06:24:33.626Z,21.47
2022-12-10T06:26:55.793Z,22.07
2022-12-10T06:29:17.283Z,22.23
2022-12-10T06:31:38.601Z,23.13
2022-12-10T06:33:59.907Z,24.03
2022-12-10T06:36:21.391Z,21.43
2022-12-10T06:38:44.480Z,22.47
2022-12-10T06:41:06.492Z,21.50
2022-12-10T06:43:30.166Z,21.60
2022-12-10T06:45:51.427Z,22.30
2022-12-10T06:48:12.476Z,22.17
2022-12-10T06:50:33.827Z,22.70
2022-12-10T06:52:55.291Z,22.27
2022-12-10T06:55:17.938Z,22.17
2022-12-10T06:57:38.904Z,24.57
2022-12-10T07:00:00.247Z,23.87
2022-12-10T07:02:21.682Z,23.27
2022-12-10T07:04:42.851Z,23.80
2022-12-10T07:07:09.271Z,24.13
2022-12-10T07:09:30.952Z,24.33
2022-12-10T07:11:53.659Z,24.87
2022-12-10T07:14:16.410Z,25.27
2022-12-10T07:16:37.675Z,23.70
2022-12-10T07:18:59.984Z,24.03
2022-12-10T07:21:22.011Z,23.20
2022-12-10T07:23:43.410Z,23.30
2022-12-10T07:26:04.646Z,22.70
2022-12-10T07:28:27.263Z,23.97
2022-12-10T07:30:48.533Z,24.77
2022-12-10T07:33:09.732Z,25.07
2022-12-10T07:35:30.969Z,27.07
2022-12-10T07:37:52.181Z,24.63
2022-12-10T07:40:13.499Z,24.93
2022-12-10T07:42:34.395Z,23.57
2022-12-10T07:44:56.942Z,24.33
2022-12-10T07:47:18.383Z,23.60
2022-12-10T07:49:39.667Z,23.70
2022-12-10T07:52:00.993Z,23.63
2022-12-10T07:54:22.286Z,27.47
2022-12-10T07:56:43.604Z,23.97
2022-12-10T07:59:04.972Z,24.50
2022-12-10T08:01:28.134Z,25.10
2022-12-10T08:03:49.271Z,23.70
2022-12-10T08:06:12.233Z,21.80
2022-12-10T08:08:34.507Z,23.53
2022-12-10T08:10:55.467Z,22.93
2022-12-10T08:13:16.545Z,23.30
2022-12-10T08:15:38.150Z,23.20
2022-12-10T08:18:00.661Z,22.23
2022-12-10T08:20:21.608Z,22.57
2022-12-10T08:22:42.738Z,23.10
2022-12-10T08:25:04.021Z,24.73
2022-12-10T08:27:25.235Z,24.43
2022-12-10T08:29:46.099Z,22.07
2022-12-10T08:32:07.562Z,24.77
2022-12-10T08:34:30.062Z,24.03
2022-12-10T08:36:51.301Z,25.43
2022-12-10T08:39:16.074Z,24.40
2022-12-10T08:41:37.047Z,24.50
2022-12-10T08:43:58.346Z,25.13
2022-12-10T08:46:19.612Z,22.90
2022-12-10T08:48:41.518Z,22.63
2022-12-10T08:51:04.387Z,22.73
2022-12-10T08:53:26.074Z,23.97
2022-12-10T08:55:49.229Z,24.37
2022-12-10T08:58:11.242Z,23.27
2022-12-10T09:00:32.258Z,22.67
2022-12-10T09:02:53.866Z,24.77
2022-12-10T09:05:14.924Z,23.53
2022-12-10T09:07:37.504Z,21.23
2022-12-10T09:09:58.870Z,22.43
2022-12-10T09:12:20.278Z,21.30
2022-12-10T09:14:43.034Z,22.40
2022-12-10T09:17:05.111Z,21.70
2022-12-10T09:19:26.052Z,21.50
2022-12-10T09:21:48.038Z,22.67
2022-12-10T09:24:10.943Z,21.37
2022-12-10T09:26:32.151Z,21.03
2022-12-10T09:28:53.697Z,20.13
2022-12-10T09:31:20.148Z,20.33
2022-12-10T09:33:42.122Z,20.60
2022-12-10T09:36:04.666Z,21.00
2022-12-10T09:38:26.098Z,19.80
2022-12-10T09:40:51.898Z,19.50
2022-12-10T09:43:19.194Z,20.10
2022-12-10T09:45:45.045Z,20.73
2022-12-10T09:48:12.927Z,20.70
2022-12-10T09:50:37.418Z,21.10
2022-12-10T09:52:59.731Z,20.90
2022-12-10T09:55:22.382Z,20.43
2022-12-10T09:57:45.733Z,21.13
2022-12-10T10:00:09.070Z,19.67
2022-12-10T10:02:31.347Z,19.40
2022-12-10T10:04:53.306Z,20.43
2022-12-10T10:07:18.910Z,21.17
2022-12-10T10:09:41.884Z,21.77
2022-12-10T10:12:08.753Z,22.27
2022-12-10T10:14:32.025Z,20.60
2022-12-10T10:16:55.365Z,19.67
2022-12-10T10:19:17.889Z,19.97
2022-12-10T10:21:40.749Z,18.97
2022-12-10T10:24:07.053Z,19.90
2022-12-10T10:26:31.145Z,20.87
2022-12-10T10:28:54.733Z,21.03
2022-12-10T10:31:20.962Z,19.03
2022-12-10T10:33:49.894Z,19.37
2022-12-10T10:36:12.182Z,21.33
2022-12-10T10:38:33.523Z,20.40
2022-12-10T10:40:55.772Z,19.40
2022-12-10T10:43:20.228Z,20.47
2022-12-10T10:45:42.478Z,20.00
2022-12-10T10:48:11.051Z,19.40
2022-12-10T10:50:37.900Z,19.70
2022-12-10T10:52:59.061Z,19.40
2022-12-10T10:55:35.825Z,18.80
2022-12-10T10:57:57.200Z,18.60
2022-12-10T11:00:21.155Z,20.47
2022-12-10T11:02:43.456Z,19.63
2022-12-10T11:05:08.840Z,20.23
2022-12-10T11:07:35.453Z,19.80
2022-12-10T11:09:56.858Z,19.53
2022-12-10T11:12:29.552Z,21.10
2022-12-10T11:14:50.659Z,20.87
2022-12-10T11:17:19.025Z,21.20
2022-12-10T11:19:44.173Z,20.97
2022-12-10T11:22:19.223Z,19.37
2022-12-10T11:24:40.510Z,19.83
2022-12-10T11:27:03.843Z,19.40
2022-12-10T11:29:34.110Z,18.47
2022-12-10T11:32:01.739Z,17.00
2022-12-10T11:34:30.740Z,18.83
2022-12-10T11:36:59.609Z,18.73
2022-12-10T11:39:28.241Z,19.27
2022-12-10T11:41:51.742Z,19.67
2022-12-10T11:44:17.310Z,19.23
2022-12-10T11:46:45.494Z,17.90
2022-12-10T11:49:16.643Z,19.93
2022-12-10T11:51:41.012Z,20.73
2022-12-10T11:54:21.595Z,20.40
2022-12-10T11:56:45.801Z,19.57
2022-12-10T11:59:10.770Z,18.07
2022-12-10T12:01:39.342Z,19.93
2022-12-10T12:04:22.189Z,19.80
2022-12-10T12:06:56.953Z,19.63
2022-12-10T12:09:22.323Z,19.60
2022-12-10T12:11:52.997Z,19.23
2022-12-10T12:14:15.774Z,19.30
2022-12-10T12:16:40.922Z,19.57
2022-12-10T12:19:03.656Z,19.77
2022-12-10T12:21:25.101Z,19.00
2022-12-10T12:23:50.684Z,19.73
2022-12-10T12:26:14.161Z,20.50
2022-12-10T12:28:38.841Z,20.13
2022-12-10T12:31:01.682Z,19.90
2022-12-10T12:33:28.919Z,19.43
2022-12-10T12:35:51.920Z,21.70
2022-12-10T12:38:30.405Z,23.10
2022-12-10T12:40:53.545Z,21.83
2022-12-10T12:43:18.274Z,18.37
2022-12-10T12:45:42.427Z,20.07
2022-12-10T12:48:08.195Z,17.93
2022-12-10T12:50:32.872Z,19.07
2022-12-10T12:52:55.524Z,20.60
2022-12-10T12:55:18.761Z,24.30
2022-12-10T12:57:43.330Z,20.30
2022-12-10T13:00:05.706Z,25.70
2022-12-10T13:02:44.621Z,21.23
2022-12-10T13:05:06.486Z,26.53
2022-12-10T13:07:35.512Z,36.90
2022-12-10T13:10:10.743Z,26.53
2022-12-10T13:12:33.190Z,21.17
2022-12-10T13:15:03.322Z,21.03
2022-12-10T13:17:29.870Z,20.97
2022-12-10T13:19:53.869Z,19.50
2022-12-10T13:22:34.822Z,19.53
2022-12-10T13:25:14.180Z,18.63
2022-12-10T13:27:37.467Z,18.43
2022-12-10T13:29:59.622Z,19.03
2022-12-10T13:32:21.344Z,19.40
2022-12-10T13:34:42.705Z,19.10
2022-12-10T13:37:15.714Z,19.67
2022-12-10T13:39:38.145Z,19.10
2022-12-10T13:42:35.551Z,19.47
2022-12-10T13:45:03.299Z,20.33
2022-12-10T13:47:27.885Z,18.97
2022-12-10T13:49:51.585Z,18.93
2022-12-10T13:52:16.799Z,19.33
2022-12-10T13:54:53.246Z,19.13
2022-12-10T13:57:21.288Z,18.97
2022-12-10T13:59:44.898Z,18.70
2022-12-10T14:02:22.759Z,18.97
2022-12-10T14:04:59.127Z,20.00
2022-12-10T14:07:20.899Z,20.43
2022-12-10T14:09:44.505Z,19.13
2022-12-10T14:12:07.712Z,17.97
2022-12-10T14:14:32.495Z,19.03
2022-12-10T14:16:56.708Z,19.30
2022-12-10T14:19:20.242Z,18.43
2022-12-10T14:21:42.430Z,18.93
2022-12-10T14:24:03.790Z,19.83
2022-12-10T14:26:28.780Z,19.23
2022-12-10T14:28:50.890Z,19.23
2022-12-10T14:31:15.571Z,18.87
2022-12-10T14:33:36.713Z,22.90
2022-12-10T14:35:59.851Z,19.37
2022-12-10T14:38:22.173Z,19.73
2022-12-10T14:40:44.079Z,19.97
2022-12-10T14:43:06.181Z,20.53
2022-12-10T14:45:31.004Z,20.30
2022-12-10T14:47:51.947Z,19.50
2022-12-10T14:50:14.117Z,20.80
2022-12-10T14:52:41.586Z,22.63
2022-12-10T14:55:03.058Z,22.57
2022-12-10T14:57:26.673Z,22.07
2022-12-10T14:59:48.996Z,22.13
2022-12-10T15:02:15.690Z,20.60
2022-12-10T15:04:41.731Z,20.50
2022-12-10T15:07:03.905Z,21.07
2022-12-10T15:09:28.195Z,20.27
2022-12-10T15:11:54.560Z,21.30
2022-12-10T15:14:18.452Z,21.87
2022-12-10T15:16:41.082Z,20.83
2022-12-10T15:19:09.614Z,19.37
2022-12-10T15:21:31.059Z,22.00
2022-12-10T15:23:52.807Z,21.27
2022-12-10T15:26:19.559Z,19.33
2022-12-10T15:28:41.797Z,21.80
2022-12-10T15:31:12.984Z,23.23
2022-12-10T15:33:38.394Z,23.60
2022-12-10T15:36:00.638Z,24.03
2022-12-10T15:38:21.746Z,24.13
2022-12-10T15:40:42.934Z,26.07
2022-12-10T15:43:15.007Z,25.50
2022-12-10T15:45:40.493Z,25.43
2022-12-10T15:48:02.062Z,20.03
2022-12-10T15:50:23.346Z,20.70
2022-12-10T15:52:45.350Z,21.73
2022-12-10T15:55:06.998Z,21.20
2022-12-10T15:57:29.665Z,20.27
2022-12-10T15:59:54.574Z,22.73
2022-12-10T16:02:19.489Z,20.43
2022-12-10T16:04:40.337Z,21.90
2022-12-10T16:07:01.570Z,22.67
2022-12-10T16:09:22.790Z,20.83
2022-12-10T16:11:44.246Z,20.93
2022-12-10T16:14:07.500Z,22.13
2022-12-10T16:16:30.526Z,21.90
2022-12-10T16:18:52.124Z,21.73
2022-12-10T16:21:13.454Z,21.43
2022-12-10T16:23:34.665Z,24.23
2022-12-10T16:25:56.012Z,24.30
2022-12-10T16:28:18.200Z,21.93
2022-12-10T16:30:47.655Z,25.33
2022-12-10T16:33:10.699Z,22.43
2022-12-10T16:35:32.370Z,22.43
2022-12-10T16:37:55.493Z,21.57
2022-12-10T16:40:17.113Z,21.70
2022-12-10T16:42:38.886Z,23.07
2022-12-10T16:45:03.819Z,21.83
2022-12-10T16:47:29.626Z,24.80
2022-12-10T16:49:52.251Z,23.33
2022-12-10T16:52:14.299Z,27.40
2022-12-10T16:54:35.177Z,24.13
2022-12-10T16:56:56.307Z,23.80
2022-12-10T16:59:17.532Z,21.47
2022-12-10T17:01:38.771Z,22.23
2022-12-10T17:04:00.263Z,22.50
2022-12-10T17:06:23.209Z,21.03
2022-12-10T17:08:44.510Z,21.63
2022-12-10T17:11:31.055Z,20.97
2022-12-10T17:13:52.336Z,21.53
2022-12-10T17:16:14.927Z,20.77
2022-12-10T17:18:36.350Z,21.50
2022-12-10T17:20:57.552Z,20.63
2022-12-10T17:23:22.678Z,21.43
2022-12-10T17:25:44.570Z,21.67
2022-12-10T17:28:06.154Z,22.03
2022-12-10T17:30:27.197Z,22.97
2022-12-10T17:32:48.570Z,23.00
2022-12-10T17:35:10.663Z,24.90
2022-12-10T17:37:33.290Z,22.73
2022-12-10T17:39:55.638Z,21.50
2022-12-10T17:42:16.675Z,21.23
2022-12-10T17:44:38.040Z,21.83
2022-12-10T17:46:59.810Z,23.73
2022-12-10T17:49:20.751Z,23.83
2022-12-10T17:51:41.950Z,23.17
2022-12-10T17:54:02.914Z,23.53
2022-12-10T17:56:28.799Z,29.50
2022-12-10T17:58:50.459Z,28.87
2022-12-10T18:01:11.848Z,26.47
2022-12-10T18:03:32.914Z,26.00
2022-12-10T18:05:54.150Z,25.43
2022-12-10T18:08:15.900Z,23.93
2022-12-10T18:10:37.609Z,23.60
2022-12-10T18:13:00.145Z,24.60
2022-12-10T18:15:21.733Z,22.27
2022-12-10T18:17:43.063Z,23.23
2022-12-10T18:20:04.660Z,23.53
2022-12-10T18:22:25.728Z,22.63
2022-12-10T18:24:46.931Z,23.70
2022-12-10T18:27:08.154Z,24.93
2022-12-10T18:29:30.824Z,26.60
2022-12-10T18:31:51.817Z,26.13
2022-12-10T18:34:14.475Z,25.93
2022-12-10T18:36:36.458Z,24.47
2022-12-10T18:38:58.330Z,24.63
2022-12-10T18:41:19.794Z,23.30
2022-12-10T18:43:40.761Z,23.97
2022-12-10T18:46:03.434Z,24.93
2022-12-10T18:48:24.589Z,24.67
2022-12-10T18:50:46.231Z,23.63
2022-12-10T18:53:07.275Z,23.80
2022-12-10T18:55:28.803Z,24.07
2022-12-10T18:57:56.304Z,24.20
2022-12-10T19:00:25.339Z,23.67
2022-12-10T19:02:48.080Z,23.70
2022-12-10T19:05:09.381Z,26.03
2022-12-10T19:07:31.026Z,24.00
2022-12-10T19:09:53.967Z,25.43
2022-12-10T19:12:15.138Z,24.27
2022-12-10T19:14:36.493Z,24.10
2022-12-10T19:16:58.337Z,24.63
2022-12-10T19:19:20.771Z,24.90
2022-12-10T19:21:41.658Z,25.93
2022-12-10T19:24:03.178Z,25.03
2022-12-10T19:26:26.329Z,25.30
2022-12-10T19:28:47.573Z,25.83
2022-12-10T19:31:08.636Z,25.77
2022-12-10T19:33:29.786Z,25.07
2022-12-10T19:35:52.292Z,25.20
2022-12-10T19:38:14.015Z,24.43
2022-12-10T19:40:36.546Z,25.37
2022-12-10T19:42:58.088Z,25.03
2022-12-10T19:45:19.629Z,25.03
2022-12-10T19:47:40.738Z,30.10
2022-12-10T19:50:02.223Z,28.07
2022-12-10T19:52:24.985Z,35.43
2022-12-10T19:54:46.342Z,28.07
2022-12-10T19:57:07.508Z,25.83
2022-12-10T19:59:29.159Z,27.80
2022-12-10T20:01:50.035Z,32.60
2022-12-10T20:04:11.314Z,27.30
2022-12-10T20:06:36.324Z,27.97
2022-12-10T20:08:59.715Z,29.50
2022-12-10T20:11:20.915Z,50.83
2022-12-10T20:13:43.170Z,33.03
2022-12-10T20:16:04.605Z,33.47
2022-12-10T20:18:25.812Z,28.77
2022-12-10T20:20:47.583Z,27.90
2022-12-10T20:23:08.583Z,30.40
2022-12-10T20:25:31.197Z,28.77
2022-12-10T20:27:53.006Z,29.13
2022-12-10T20:30:18.099Z,27.30
2022-12-10T20:32:39.546Z,27.50
2022-12-10T20:35:00.929Z,25.77
2022-12-10T20:37:22.181Z,52.57
2022-12-10T20:39:49.527Z,26.57
2022-12-10T20:42:19.936Z,26.57
2022-12-10T20:44:41.223Z,25.77
2022-12-10T20:47:02.638Z,25.00
2022-12-10T20:49:25.090Z,30.00
2022-12-10T20:51:46.452Z,30.03
2022-12-10T20:54:08.039Z,25.63
2022-12-10T20:56:29.382Z,24.97
2022-12-10T20:58:52.543Z,26.67
2022-12-10T21:01:14.322Z,24.77
2022-12-10T21:03:35.726Z,36.47
2022-12-10T21:05:56.895Z,24.93
2022-12-10T21:08:23.099Z,25.60
2022-12-10T21:10:54.815Z,22.07
2022-12-10T21:13:15.736Z,22.60
2022-12-10T21:15:38.613Z,22.23
2022-12-10T21:17:59.725Z,31.47
2022-12-10T21:20:27.117Z,25.17
2022-12-10T21:22:50.079Z,25.70
2022-12-10T21:25:12.203Z,29.83
2022-12-10T21:27:33.702Z,28.50
2022-12-10T21:29:54.864Z,25.13
2022-12-10T21:32:17.496Z,22.90
2022-12-10T21:34:38.861Z,21.67
2022-12-10T21:37:00.049Z,22.80
2022-12-10T21:39:25.010Z,18.97
2022-12-10T21:42:04.445Z,24.20
2022-12-10T21:44:25.615Z,19.13
2022-12-10T21:46:46.966Z,18.70
2022-12-10T21:49:09.999Z,22.97
2022-12-10T21:51:35.022Z,20.77
2022-12-10T21:53:59.842Z,20.33
2022-12-10T21:56:20.764Z,20.47
2022-12-10T21:58:42.038Z,21.67
2022-12-10T22:01:03.459Z,20.27
2022-12-10T22:03:24.589Z,20.90
2022-12-10T22:05:47.526Z,21.20
2022-12-10T22:08:08.881Z,22.67
2022-12-10T22:10:30.688Z,21.80
2022-12-10T22:12:51.523Z,20.47
2022-12-10T22:15:13.565Z,21.20
2022-12-10T22:17:34.670Z,20.17
2022-12-10T22:19:55.843Z,20.53
2022-12-10T22:22:18.535Z,22.23
2022-12-10T22:24:40.083Z,21.63
2022-12-10T22:27:01.594Z,22.67
2022-12-10T22:29:24.976Z,21.93
2022-12-10T22:31:46.263Z,22.00
2022-12-10T22:34:08.038Z,22.23
2022-12-10T22:36:29.339Z,21.43
2022-12-10T22:38:51.961Z,26.90
2022-12-10T22:41:13.327Z,25.83
2022-12-10T22:43:50.454Z,21.13
2022-12-10T22:46:12.319Z,21.77
2022-12-10T22:48:33.263Z,24.43
2022-12-10T22:51:00.803Z,22.70
2022-12-10T22:53:21.932Z,21.90
2022-12-10T22:55:44.746Z,20.80
2022-12-10T22:58:06.655Z,23.57
2022-12-10T23:00:28.110Z,21.07
2022-12-10T23:02:50.867Z,23.53
2022-12-10T23:05:12.084Z,21.50
2022-12-10T23:07:33.706Z,21.50
2022-12-10T23:09:55.188Z,21.37
2022-12-10T23:12:35.126Z,19.50
2022-12-10T23:14:57.739Z,20.57
2022-12-10T23:17:18.931Z,20.13
2022-12-10T23:19:39.943Z,19.83
2022-12-10T23:22:01.114Z,18.60
2022-12-10T23:24:22.696Z,19.90
2022-12-10T23:26:44.523Z,20.77
2022-12-10T23:29:06.949Z,20.53
2022-12-10T23:31:28.379Z,21.10
2022-12-10T23:33:49.317Z,20.40
2022-12-10T23:36:11.800Z,21.47
2022-12-10T23:38:32.866Z,22.83
2022-12-10T23:40:54.102Z,21.60
2022-12-10T23:43:15.471Z,30.27
2022-12-10T23:45:38.025Z,22.13
2022-12-10T23:47:59.366Z,22.60
2022-12-10T23:50:20.792Z,21.77
2022-12-10T23:52:42.078Z,21.23
2022-12-10T23:55:03.374Z,23.00
2022-12-10T23:57:24.817Z,20.83
2022-12-10T23:59:46.122Z,21.13
